Jacinto Arauz, Argentina
Current Conditions -  °F | °C
As of 9:00 PM on Tuesday 25 Nov 2014 (Local Time) from SAZN Reporting Station
Clear Clear  
Wind Chill: 70°   Ceiling: Unl
Heat Index: 70°   Visibility: 6mi
Dew Point: 43°   Wind: 2mph
Humidity: 38%   Direction: 270°W
Pressure: 29.83"   Gusts: NA
Location:  38.07°S, 63.43°W
Report Text: SAZN 260000Z 27002KT CAVOK 21/06 Q1010
Loading
Personal Weather Stations






























Interactive Weather Map New forecast layout! Learn more

10-Day Weather Forecast

Advertisements
Track Severe Weather on mobile